Los Angeles, Texas
Current Conditions -  °F | °C
As of 4:53 AM on Thursday 23 Oct 2014 (Local Time) from KCOT Reporting Station
Overcast Overcast  
Wind Chill: 72°   Ceiling: 8500
Heat Index: 72°   Visibility: 10mi
Dew Point: 64°   Wind: 3mph
Humidity: 76%   Direction: 60°ENE
Pressure: 30.07"   Gusts: NA
Location:  28.4056°N, 99.0861°W
Report Text: KCOT 230953Z AUTO 06003KT 10SM OVC085 22/18 A3007 RMK AO2 RAB26E46 SLP174 P0000 T02220178
Loading
Personal Weather Stations






























Interactive Weather Map
Tropical Storm Tracking
New forecast layout! Learn more

10-Day Weather Forecast

Advertisements
Track Severe Weather on mobile